sensor_id;sensor_type;location;lat;lon;timestamp;P1;durP1;ratioP1;P2;durP2;ratioP2
22634;SDS011;11484;50.858;4.384;2023-04-01T00:00:25;5.90;;;1.70;;
22634;SDS011;11484;50.858;4.384;2023-04-01T00:02:51;5.22;;;1.90;;
22634;SDS011;11484;50.858;4.384;2023-04-01T00:05:17;4.65;;;1.35;;
22634;SDS011;11484;50.858;4.384;2023-04-01T00:07:42;4.03;;;2.00;;
22634;SDS011;11484;50.858;4.384;2023-04-01T00:10:09;3.78;;;1.70;;
22634;SDS011;11484;50.858;4.384;2023-04-01T00:12:37;3.90;;;1.45;;
22634;SDS011;11484;50.858;4.384;2023-04-01T00:15:04;3.67;;;1.42;;
22634;SDS011;11484;50.858;4.384;2023-04-01T00:17:31;12.95;;;4.70;;
22634;SDS011;11484;50.858;4.384;2023-04-01T00:19:57;5.25;;;1.88;;
22634;SDS011;11484;50.858;4.384;2023-04-01T00:22:23;6.43;;;1.65;;
22634;SDS011;11484;50.858;4.384;2023-04-01T00:24:50;5.95;;;1.80;;
22634;SDS011;11484;50.858;4.384;2023-04-01T00:27:16;7.55;;;1.88;;
22634;SDS011;11484;50.858;4.384;2023-04-01T00:29:42;4.63;;;1.92;;
22634;SDS011;11484;50.858;4.384;2023-04-01T00:32:09;4.00;;;2.08;;
22634;SDS011;11484;50.858;4.384;2023-04-01T00:34:35;7.57;;;1.70;;
22634;SDS011;11484;50.858;4.384;2023-04-01T00:37:01;4.57;;;1.65;;
22634;SDS011;11484;50.858;4.384;2023-04-01T00:39:30;5.97;;;1.65;;
22634;SDS011;11484;50.858;4.384;2023-04-01T00:41:57;4.18;;;1.55;;
22634;SDS011;11484;50.858;4.384;2023-04-01T00:44:25;5.22;;;1.35;;
22634;SDS011;11484;50.858;4.384;2023-04-01T00:46:56;6.25;;;1.70;;
22634;SDS011;11484;50.858;4.384;2023-04-01T00:49:22;4.07;;;1.33;;
22634;SDS011;11484;50.858;4.384;2023-04-01T00:51:53;3.50;;;2.00;;
22634;SDS011;11484;50.858;4.384;2023-04-01T00:54:20;4.97;;;1.80;;
22634;SDS011;11484;50.858;4.384;2023-04-01T00:56:54;2.95;;;1.65;;
22634;SDS011;11484;50.858;4.384;2023-04-01T00:59:24;2.97;;;1.52;;
22634;SDS011;11484;50.858;4.384;2023-04-01T01:01:52;2.45;;;1.23;;
22634;SDS011;11484;50.858;4.384;2023-04-01T01:04:28;2.25;;;1.23;;
22634;SDS011;11484;50.858;4.384;2023-04-01T01:10:17;4.35;;;1.30;;
22634;SDS011;11484;50.858;4.384;2023-04-01T01:12:58;4.68;;;1.10;;
22634;SDS011;11484;50.858;4.384;2023-04-01T01:32:16;3.50;;;1.00;;
22634;SDS011;11484;50.858;4.384;2023-04-01T01:34:52;1.95;;;1.10;;
22634;SDS011;11484;50.858;4.384;2023-04-01T01:37:29;2.20;;;0.95;;
22634;SDS011;11484;50.858;4.384;2023-04-01T01:40:01;2.05;;;0.90;;
22634;SDS011;11484;50.858;4.384;2023-04-01T01:42:31;2.58;;;1.30;;
22634;SDS011;11484;50.858;4.384;2023-04-01T01:45:00;1.77;;;0.95;;
22634;SDS011;11484;50.858;4.384;2023-04-01T01:47:30;2.03;;;1.10;;
22634;SDS011;11484;50.858;4.384;2023-04-01T01:49:59;2.67;;;1.30;;
22634;SDS011;11484;50.858;4.384;2023-04-01T01:52:29;3.20;;;1.60;;
22634;SDS011;11484;50.858;4.384;2023-04-01T01:54:55;2.72;;;1.83;;
22634;SDS011;11484;50.858;4.384;2023-04-01T01:57:23;2.88;;;1.65;;
22634;SDS011;11484;50.858;4.384;2023-04-01T02:00:03;5.10;;;2.20;;
22634;SDS011;11484;50.858;4.384;2023-04-01T02:02:39;5.10;;;2.40;;
22634;SDS011;11484;50.858;4.384;2023-04-01T02:05:07;6.15;;;2.85;;
22634;SDS011;11484;50.858;4.384;2023-04-01T02:07:36;5.13;;;2.55;;
22634;SDS011;11484;50.858;4.384;2023-04-01T02:10:06;4.78;;;2.70;;
22634;SDS011;11484;50.858;4.384;2023-04-01T02:12:33;4.70;;;2.88;;
22634;SDS011;11484;50.858;4.384;2023-04-01T02:15:03;4.05;;;2.42;;
22634;SDS011;11484;50.858;4.384;2023-04-01T02:17:34;5.03;;;2.58;;
22634;SDS011;11484;50.858;4.384;2023-04-01T02:20:12;5.82;;;3.00;;
22634;SDS011;11484;50.858;4.384;2023-04-01T02:22:43;5.65;;;2.90;;
22634;SDS011;11484;50.858;4.384;2023-04-01T02:25:14;5.45;;;3.13;;
22634;SDS011;11484;50.858;4.384;2023-04-01T02:27:44;6.32;;;2.33;;
22634;SDS011;11484;50.858;4.384;2023-04-01T02:30:15;8.55;;;2.95;;
22634;SDS011;11484;50.858;4.384;2023-04-01T02:32:42;5.18;;;2.58;;
22634;SDS011;11484;50.858;4.384;2023-04-01T02:35:09;5.28;;;2.70;;
22634;SDS011;11484;50.858;4.384;2023-04-01T02:37:37;4.50;;;2.58;;
22634;SDS011;11484;50.858;4.384;2023-04-01T02:40:07;5.28;;;2.28;;
22634;SDS011;11484;50.858;4.384;2023-04-01T02:42:34;4.70;;;2.67;;
22634;SDS011;11484;50.858;4.384;2023-04-01T02:45:00;4.68;;;2.20;;
22634;SDS011;11484;50.858;4.384;2023-04-01T02:47:26;2.88;;;1.90;;
22634;SDS011;11484;50.858;4.384;2023-04-01T02:49:52;5.40;;;2.03;;
22634;SDS011;11484;50.858;4.384;2023-04-01T02:52:24;6.68;;;2.25;;
22634;SDS011;11484;50.858;4.384;2023-04-01T02:54:50;4.05;;;1.95;;
22634;SDS011;11484;50.858;4.384;2023-04-01T02:57:16;4.88;;;2.20;;
22634;SDS011;11484;50.858;4.384;2023-04-01T02:59:41;5.32;;;2.50;;
22634;SDS011;11484;50.858;4.384;2023-04-01T03:02:07;7.30;;;2.25;;
22634;SDS011;11484;50.858;4.384;2023-04-01T03:04:33;8.57;;;3.10;;
22634;SDS011;11484;50.858;4.384;2023-04-01T03:06:58;9.32;;;2.70;;
22634;SDS011;11484;50.858;4.384;2023-04-01T03:09:24;5.13;;;2.55;;
22634;SDS011;11484;50.858;4.384;2023-04-01T03:11:50;6.95;;;2.42;;
22634;SDS011;11484;50.858;4.384;2023-04-01T03:14:16;5.95;;;2.42;;
22634;SDS011;11484;50.858;4.384;2023-04-01T03:16:41;6.97;;;2.55;;
22634;SDS011;11484;50.858;4.384;2023-04-01T03:19:07;5.53;;;2.40;;
22634;SDS011;11484;50.858;4.384;2023-04-01T03:21:33;6.20;;;2.92;;
22634;SDS011;11484;50.858;4.384;2023-04-01T03:23:58;11.68;;;3.28;;
22634;SDS011;11484;50.858;4.384;2023-04-01T03:26:24;6.50;;;2.65;;
22634;SDS011;11484;50.858;4.384;2023-04-01T03:28:52;6.80;;;2.85;;
22634;SDS011;11484;50.858;4.384;2023-04-01T03:31:18;5.38;;;3.38;;
22634;SDS011;11484;50.858;4.384;2023-04-01T03:33:44;6.60;;;3.08;;
22634;SDS011;11484;50.858;4.384;2023-04-01T03:36:10;7.97;;;3.80;;
22634;SDS011;11484;50.858;4.384;2023-04-01T03:38:37;7.32;;;4.10;;
22634;SDS011;11484;50.858;4.384;2023-04-01T03:41:04;7.78;;;3.47;;
22634;SDS011;11484;50.858;4.384;2023-04-01T03:43:31;6.55;;;3.35;;
22634;SDS011;11484;50.858;4.384;2023-04-01T03:45:57;9.20;;;3.72;;
22634;SDS011;11484;50.858;4.384;2023-04-01T03:48:23;10.20;;;4.07;;
22634;SDS011;11484;50.858;4.384;2023-04-01T03:50:50;10.85;;;4.30;;
22634;SDS011;11484;50.858;4.384;2023-04-01T03:53:16;9.82;;;3.88;;
22634;SDS011;11484;50.858;4.384;2023-04-01T03:55:42;8.68;;;3.88;;
22634;SDS011;11484;50.858;4.384;2023-04-01T03:58:08;12.32;;;5.15;;
22634;SDS011;11484;50.858;4.384;2023-04-01T04:00:34;9.80;;;3.90;;
22634;SDS011;11484;50.858;4.384;2023-04-01T04:03:00;8.45;;;3.97;;
22634;SDS011;11484;50.858;4.384;2023-04-01T04:05:26;8.68;;;3.70;;
22634;SDS011;11484;50.858;4.384;2023-04-01T04:07:52;11.02;;;3.70;;
22634;SDS011;11484;50.858;4.384;2023-04-01T04:10:19;5.53;;;3.00;;
22634;SDS011;11484;50.858;4.384;2023-04-01T04:12:45;7.85;;;3.53;;
22634;SDS011;11484;50.858;4.384;2023-04-01T04:15:11;8.45;;;3.60;;
22634;SDS011;11484;50.858;4.384;2023-04-01T04:17:37;5.88;;;3.67;;
22634;SDS011;11484;50.858;4.384;2023-04-01T04:20:03;7.18;;;3.65;;
22634;SDS011;11484;50.858;4.384;2023-04-01T04:22:29;8.98;;;3.30;;
22634;SDS011;11484;50.858;4.384;2023-04-01T04:24:54;6.78;;;2.88;;
22634;SDS011;11484;50.858;4.384;2023-04-01T04:27:20;6.35;;;3.38;;
22634;SDS011;11484;50.858;4.384;2023-04-01T04:29:46;4.55;;;2.85;;
22634;SDS011;11484;50.858;4.384;2023-04-01T04:32:12;6.18;;;3.42;;
22634;SDS011;11484;50.858;4.384;2023-04-01T04:34:37;5.55;;;2.53;;
22634;SDS011;11484;50.858;4.384;2023-04-01T04:37:03;4.75;;;2.70;;
22634;SDS011;11484;50.858;4.384;2023-04-01T04:39:29;4.05;;;2.40;;
22634;SDS011;11484;50.858;4.384;2023-04-01T04:41:55;5.78;;;2.22;;
22634;SDS011;11484;50.858;4.384;2023-04-01T04:44:20;6.25;;;2.20;;
22634;SDS011;11484;50.858;4.384;2023-04-01T04:46:46;3.78;;;1.98;;
22634;SDS011;11484;50.858;4.384;2023-04-01T04:49:12;3.70;;;2.05;;
22634;SDS011;11484;50.858;4.384;2023-04-01T04:51:38;3.95;;;2.28;;
22634;SDS011;11484;50.858;4.384;2023-04-01T04:54:04;3.55;;;2.40;;
22634;SDS011;11484;50.858;4.384;2023-04-01T04:56:31;4.53;;;2.70;;
22634;SDS011;11484;50.858;4.384;2023-04-01T04:58:57;3.38;;;2.40;;
22634;SDS011;11484;50.858;4.384;2023-04-01T05:01:23;4.38;;;2.22;;
22634;SDS011;11484;50.858;4.384;2023-04-01T05:03:50;5.72;;;2.25;;
22634;SDS011;11484;50.858;4.384;2023-04-01T05:06:16;4.05;;;2.08;;
22634;SDS011;11484;50.858;4.384;2023-04-01T05:08:43;3.20;;;2.03;;
22634;SDS011;11484;50.858;4.384;2023-04-01T05:11:14;4.60;;;2.50;;
22634;SDS011;11484;50.858;4.384;2023-04-01T05:13:43;3.47;;;2.38;;
22634;SDS011;11484;50.858;4.384;2023-04-01T05:16:13;4.05;;;2.35;;
22634;SDS011;11484;50.858;4.384;2023-04-01T05:18:41;5.60;;;2.60;;
22634;SDS011;11484;50.858;4.384;2023-04-01T05:21:07;5.75;;;2.50;;
22634;SDS011;11484;50.858;4.384;2023-04-01T05:23:34;4.15;;;2.65;;
22634;SDS011;11484;50.858;4.384;2023-04-01T05:26:11;4.97;;;2.63;;
22634;SDS011;11484;50.858;4.384;2023-04-01T05:28:38;4.50;;;2.60;;
22634;SDS011;11484;50.858;4.384;2023-04-01T05:31:05;5.50;;;2.50;;
22634;SDS011;11484;50.858;4.384;2023-04-01T05:33:31;4.80;;;2.92;;
22634;SDS011;11484;50.858;4.384;2023-04-01T05:36:05;5.32;;;2.92;;
22634;SDS011;11484;50.858;4.384;2023-04-01T05:38:32;7.72;;;3.00;;
22634;SDS011;11484;50.858;4.384;2023-04-01T05:41:01;5.72;;;3.13;;
22634;SDS011;11484;50.858;4.384;2023-04-01T05:43:27;4.47;;;3.08;;
22634;SDS011;11484;50.858;4.384;2023-04-01T05:45:54;6.43;;;3.40;;
22634;SDS011;11484;50.858;4.384;2023-04-01T05:48:20;7.03;;;3.50;;
22634;SDS011;11484;50.858;4.384;2023-04-01T05:50:46;6.95;;;3.40;;
22634;SDS011;11484;50.858;4.384;2023-04-01T05:53:12;7.40;;;3.58;;
22634;SDS011;11484;50.858;4.384;2023-04-01T05:55:37;6.85;;;3.45;;
22634;SDS011;11484;50.858;4.384;2023-04-01T05:58:03;7.25;;;3.80;;
22634;SDS011;11484;50.858;4.384;2023-04-01T06:00:29;9.65;;;4.10;;
22634;SDS011;11484;50.858;4.384;2023-04-01T06:02:55;8.90;;;4.07;;
22634;SDS011;11484;50.858;4.384;2023-04-01T06:05:24;6.10;;;3.50;;
22634;SDS011;11484;50.858;4.384;2023-04-01T06:07:55;8.90;;;4.63;;
22634;SDS011;11484;50.858;4.384;2023-04-01T06:10:28;8.35;;;4.30;;
22634;SDS011;11484;50.858;4.384;2023-04-01T06:13:12;7.93;;;4.60;;
22634;SDS011;11484;50.858;4.384;2023-04-01T06:15:53;7.40;;;3.80;;
22634;SDS011;11484;50.858;4.384;2023-04-01T06:26:39;7.65;;;4.63;;
22634;SDS011;11484;50.858;4.384;2023-04-01T06:32:47;9.93;;;4.70;;
22634;SDS011;11484;50.858;4.384;2023-04-01T06:35:48;9.82;;;5.10;;
22634;SDS011;11484;50.858;4.384;2023-04-01T06:51:56;10.85;;;4.97;;
22634;SDS011;11484;50.858;4.384;2023-04-01T06:59:50;8.60;;;4.13;;
22634;SDS011;11484;50.858;4.384;2023-04-01T07:02:24;9.55;;;4.22;;
22634;SDS011;11484;50.858;4.384;2023-04-01T07:04:57;8.20;;;4.10;;
22634;SDS011;11484;50.858;4.384;2023-04-01T07:07:38;8.50;;;4.47;;
22634;SDS011;11484;50.858;4.384;2023-04-01T07:10:12;5.65;;;3.10;;
22634;SDS011;11484;50.858;4.384;2023-04-01T07:12:46;6.63;;;2.95;;
22634;SDS011;11484;50.858;4.384;2023-04-01T07:18:02;7.55;;;3.63;;
22634;SDS011;11484;50.858;4.384;2023-04-01T07:20:35;4.78;;;2.70;;
22634;SDS011;11484;50.858;4.384;2023-04-01T07:23:03;7.07;;;3.60;;
22634;SDS011;11484;50.858;4.384;2023-04-01T07:25:40;6.55;;;3.42;;
22634;SDS011;11484;50.858;4.384;2023-04-01T07:28:13;5.63;;;2.70;;
22634;SDS011;11484;50.858;4.384;2023-04-01T07:33:37;5.35;;;2.95;;
22634;SDS011;11484;50.858;4.384;2023-04-01T07:38:51;4.88;;;2.50;;
22634;SDS011;11484;50.858;4.384;2023-04-01T08:11:46;3.03;;;2.53;;
22634;SDS011;11484;50.858;4.384;2023-04-01T08:19:49;3.20;;;2.30;;
22634;SDS011;11484;50.858;4.384;2023-04-01T08:25:09;2.37;;;1.70;;
22634;SDS011;11484;50.858;4.384;2023-04-01T08:27:41;1.65;;;1.23;;
22634;SDS011;11484;50.858;4.384;2023-04-01T08:30:24;2.30;;;1.58;;
22634;SDS011;11484;50.858;4.384;2023-04-01T08:32:55;2.10;;;1.42;;
22634;SDS011;11484;50.858;4.384;2023-04-01T08:35:38;2.75;;;1.30;;
22634;SDS011;11484;50.858;4.384;2023-04-01T08:38:12;2.15;;;1.50;;
22634;SDS011;11484;50.858;4.384;2023-04-01T09:16:24;4.05;;;2.78;;
22634;SDS011;11484;50.858;4.384;2023-04-01T09:30:06;3.95;;;2.30;;
22634;SDS011;11484;50.858;4.384;2023-04-01T09:44:08;3.05;;;1.90;;
22634;SDS011;11484;50.858;4.384;2023-04-01T10:01:12;4.55;;;3.10;;
22634;SDS011;11484;50.858;4.384;2023-04-01T10:04:01;3.53;;;3.05;;
22634;SDS011;11484;50.858;4.384;2023-04-01T10:07:42;4.07;;;2.58;;
22634;SDS011;11484;50.858;4.384;2023-04-01T10:13:25;5.30;;;3.67;;
22634;SDS011;11484;50.858;4.384;2023-04-01T10:21:39;2.80;;;1.88;;
22634;SDS011;11484;50.858;4.384;2023-04-01T10:27:00;2.45;;;2.00;;
22634;SDS011;11484;50.858;4.384;2023-04-01T10:29:57;30.17;;;15.70;;
22634;SDS011;11484;50.858;4.384;2023-04-01T11:01:06;2.25;;;1.10;;
22634;SDS011;11484;50.858;4.384;2023-04-01T11:23:45;3.22;;;1.17;;
22634;SDS011;11484;50.858;4.384;2023-04-01T11:42:24;4.95;;;2.83;;
22634;SDS011;11484;50.858;4.384;2023-04-01T11:55:35;5.50;;;2.80;;
22634;SDS011;11484;50.858;4.384;2023-04-01T11:58:33;2.95;;;1.88;;
22634;SDS011;11484;50.858;4.384;2023-04-01T12:01:24;1.58;;;1.33;;
22634;SDS011;11484;50.858;4.384;2023-04-01T12:04:11;2.35;;;1.30;;
22634;SDS011;11484;50.858;4.384;2023-04-01T12:06:51;2.80;;;1.80;;
22634;SDS011;11484;50.858;4.384;2023-04-01T12:09:42;1.85;;;1.30;;
22634;SDS011;11484;50.858;4.384;2023-04-01T12:15:13;3.28;;;1.88;;
22634;SDS011;11484;50.858;4.384;2023-04-01T12:17:50;5.40;;;3.03;;
22634;SDS011;11484;50.858;4.384;2023-04-01T12:21:09;3.45;;;1.98;;
22634;SDS011;11484;50.858;4.384;2023-04-01T12:26:10;2.30;;;1.35;;
22634;SDS011;11484;50.858;4.384;2023-04-01T12:28:46;5.72;;;2.00;;
22634;SDS011;11484;50.858;4.384;2023-04-01T12:31:19;3.40;;;1.77;;
22634;SDS011;11484;50.858;4.384;2023-04-01T12:34:09;2.20;;;1.70;;
22634;SDS011;11484;50.858;4.384;2023-04-01T12:56:53;2.72;;;1.88;;
22634;SDS011;11484;50.858;4.384;2023-04-01T13:07:44;4.47;;;2.00;;
22634;SDS011;11484;50.858;4.384;2023-04-01T13:19:03;2.35;;;1.63;;
22634;SDS011;11484;50.858;4.384;2023-04-01T13:24:25;4.38;;;1.88;;
22634;SDS011;11484;50.858;4.384;2023-04-01T13:27:08;2.25;;;1.40;;
22634;SDS011;11484;50.858;4.384;2023-04-01T13:32:55;3.30;;;1.30;;
22634;SDS011;11484;50.858;4.384;2023-04-01T13:35:28;2.47;;;1.40;;
22634;SDS011;11484;50.858;4.384;2023-04-01T13:40:51;3.03;;;1.50;;
22634;SDS011;11484;50.858;4.384;2023-04-01T13:43:23;2.63;;;1.20;;
22634;SDS011;11484;50.858;4.384;2023-04-01T13:46:05;2.55;;;1.60;;
22634;SDS011;11484;50.858;4.384;2023-04-01T14:08:26;1.85;;;1.33;;
22634;SDS011;11484;50.858;4.384;2023-04-01T14:22:29;2.47;;;1.58;;
22634;SDS011;11484;50.858;4.384;2023-04-01T14:36:43;2.63;;;1.55;;
22634;SDS011;11484;50.858;4.384;2023-04-01T14:39:21;1.63;;;1.13;;
22634;SDS011;11484;50.858;4.384;2023-04-01T14:42:06;1.45;;;0.90;;
22634;SDS011;11484;50.858;4.384;2023-04-01T14:45:07;2.85;;;1.10;;
22634;SDS011;11484;50.858;4.384;2023-04-01T14:47:51;3.03;;;1.75;;
22634;SDS011;11484;50.858;4.384;2023-04-01T14:50:28;1.90;;;1.48;;
22634;SDS011;11484;50.858;4.384;2023-04-01T14:53:31;3.30;;;1.80;;
22634;SDS011;11484;50.858;4.384;2023-04-01T14:56:03;1.92;;;1.30;;
22634;SDS011;11484;50.858;4.384;2023-04-01T14:58:45;3.88;;;1.40;;
22634;SDS011;11484;50.858;4.384;2023-04-01T15:09:58;4.10;;;2.10;;
22634;SDS011;11484;50.858;4.384;2023-04-01T15:23:27;2.10;;;1.27;;
22634;SDS011;11484;50.858;4.384;2023-04-01T15:28:47;3.10;;;1.30;;
22634;SDS011;11484;50.858;4.384;2023-04-01T15:36:57;5.97;;;1.60;;
22634;SDS011;11484;50.858;4.384;2023-04-01T15:47:44;4.95;;;2.03;;
22634;SDS011;11484;50.858;4.384;2023-04-01T15:50:26;4.35;;;1.55;;
22634;SDS011;11484;50.858;4.384;2023-04-01T15:55:37;2.00;;;1.20;;
22634;SDS011;11484;50.858;4.384;2023-04-01T16:00:52;2.63;;;1.25;;
22634;SDS011;11484;50.858;4.384;2023-04-01T16:03:51;3.47;;;1.60;;
22634;SDS011;11484;50.858;4.384;2023-04-01T16:06:42;2.50;;;1.52;;
22634;SDS011;11484;50.858;4.384;2023-04-01T16:12:16;1.80;;;1.48;;
22634;SDS011;11484;50.858;4.384;2023-04-01T16:20:20;1.85;;;1.23;;
22634;SDS011;11484;50.858;4.384;2023-04-01T16:25:52;2.08;;;1.25;;
22634;SDS011;11484;50.858;4.384;2023-04-01T16:28:32;2.38;;;1.70;;
22634;SDS011;11484;50.858;4.384;2023-04-01T16:34:21;3.45;;;1.75;;
22634;SDS011;11484;50.858;4.384;2023-04-01T16:37:20;3.00;;;1.75;;
22634;SDS011;11484;50.858;4.384;2023-04-01T16:42:58;3.50;;;3.05;;
22634;SDS011;11484;50.858;4.384;2023-04-01T16:51:15;6.65;;;3.03;;
22634;SDS011;11484;50.858;4.384;2023-04-01T16:56:13;4.13;;;2.22;;
22634;SDS011;11484;50.858;4.384;2023-04-01T16:58:57;3.42;;;2.00;;
22634;SDS011;11484;50.858;4.384;2023-04-01T17:04:26;4.65;;;2.33;;
22634;SDS011;11484;50.858;4.384;2023-04-01T17:07:15;5.72;;;2.78;;
22634;SDS011;11484;50.858;4.384;2023-04-01T17:10:00;3.05;;;2.22;;
22634;SDS011;11484;50.858;4.384;2023-04-01T17:21:44;3.65;;;2.70;;
22634;SDS011;11484;50.858;4.384;2023-04-01T17:25:01;2.30;;;1.88;;
22634;SDS011;11484;50.858;4.384;2023-04-01T17:35:35;4.68;;;2.40;;
22634;SDS011;11484;50.858;4.384;2023-04-01T17:46:34;4.35;;;1.90;;
22634;SDS011;11484;50.858;4.384;2023-04-01T17:49:28;5.60;;;3.08;;
22634;SDS011;11484;50.858;4.384;2023-04-01T17:52:02;5.20;;;2.78;;
22634;SDS011;11484;50.858;4.384;2023-04-01T17:57:39;19.48;;;13.48;;
22634;SDS011;11484;50.858;4.384;2023-04-01T18:00:17;8.77;;;4.85;;
22634;SDS011;11484;50.858;4.384;2023-04-01T18:22:42;5.47;;;3.22;;
22634;SDS011;11484;50.858;4.384;2023-04-01T18:30:54;10.63;;;6.15;;
22634;SDS011;11484;50.858;4.384;2023-04-01T18:38:54;5.75;;;4.05;;
22634;SDS011;11484;50.858;4.384;2023-04-01T18:47:14;8.00;;;5.10;;
22634;SDS011;11484;50.858;4.384;2023-04-01T18:52:44;7.43;;;5.30;;
22634;SDS011;11484;50.858;4.384;2023-04-01T18:58:33;9.32;;;5.40;;
22634;SDS011;11484;50.858;4.384;2023-04-01T19:01:12;7.30;;;5.10;;
22634;SDS011;11484;50.858;4.384;2023-04-01T19:03:43;6.82;;;5.18;;
22634;SDS011;11484;50.858;4.384;2023-04-01T19:06:22;9.45;;;6.03;;
22634;SDS011;11484;50.858;4.384;2023-04-01T19:09:18;8.98;;;6.47;;
22634;SDS011;11484;50.858;4.384;2023-04-01T19:19:56;11.98;;;7.25;;
22634;SDS011;11484;50.858;4.384;2023-04-01T19:22:36;12.52;;;7.50;;
22634;SDS011;11484;50.858;4.384;2023-04-01T19:28:25;15.60;;;8.48;;
22634;SDS011;11484;50.858;4.384;2023-04-01T19:35:54;16.58;;;9.45;;
22634;SDS011;11484;50.858;4.384;2023-04-01T19:39:16;15.05;;;9.50;;
22634;SDS011;11484;50.858;4.384;2023-04-01T19:44:12;18.83;;;10.52;;
22634;SDS011;11484;50.858;4.384;2023-04-01T19:47:26;17.17;;;10.43;;
22634;SDS011;11484;50.858;4.384;2023-04-01T19:55:14;16.40;;;8.75;;
22634;SDS011;11484;50.858;4.384;2023-04-01T19:58:20;20.58;;;10.02;;
22634;SDS011;11484;50.858;4.384;2023-04-01T20:01:09;16.95;;;9.85;;
22634;SDS011;11484;50.858;4.384;2023-04-01T20:04:03;21.40;;;11.05;;
22634;SDS011;11484;50.858;4.384;2023-04-01T20:14:58;18.67;;;9.48;;
22634;SDS011;11484;50.858;4.384;2023-04-01T20:20:15;15.48;;;8.20;;
22634;SDS011;11484;50.858;4.384;2023-04-01T20:22:54;16.38;;;8.75;;
22634;SDS011;11484;50.858;4.384;2023-04-01T20:25:49;15.77;;;7.97;;
22634;SDS011;11484;50.858;4.384;2023-04-01T20:28:25;14.63;;;7.22;;
22634;SDS011;11484;50.858;4.384;2023-04-01T20:34:20;15.57;;;7.55;;
22634;SDS011;11484;50.858;4.384;2023-04-01T20:39:47;14.38;;;7.68;;
22634;SDS011;11484;50.858;4.384;2023-04-01T20:48:20;15.13;;;8.23;;
22634;SDS011;11484;50.858;4.384;2023-04-01T20:51:26;15.05;;;7.10;;
22634;SDS011;11484;50.858;4.384;2023-04-01T20:53:59;12.60;;;7.65;;
22634;SDS011;11484;50.858;4.384;2023-04-01T20:56:51;13.07;;;7.72;;
22634;SDS011;11484;50.858;4.384;2023-04-01T20:59:52;17.08;;;8.43;;
22634;SDS011;11484;50.858;4.384;2023-04-01T21:02:25;16.00;;;8.57;;
22634;SDS011;11484;50.858;4.384;2023-04-01T21:13:58;17.48;;;8.70;;
22634;SDS011;11484;50.858;4.384;2023-04-01T21:16:57;31.88;;;15.55;;
22634;SDS011;11484;50.858;4.384;2023-04-01T21:25:27;15.75;;;8.57;;
22634;SDS011;11484;50.858;4.384;2023-04-01T21:30:32;18.75;;;9.10;;
22634;SDS011;11484;50.858;4.384;2023-04-01T21:33:30;27.58;;;13.30;;
22634;SDS011;11484;50.858;4.384;2023-04-01T21:42:17;18.75;;;9.23;;
22634;SDS011;11484;50.858;4.384;2023-04-01T21:48:03;19.10;;;8.73;;
22634;SDS011;11484;50.858;4.384;2023-04-01T21:53:41;14.32;;;7.93;;
22634;SDS011;11484;50.858;4.384;2023-04-01T22:05:16;18.33;;;9.13;;
22634;SDS011;11484;50.858;4.384;2023-04-01T22:21:15;14.95;;;8.38;;
22634;SDS011;11484;50.858;4.384;2023-04-01T22:29:07;14.57;;;7.93;;
22634;SDS011;11484;50.858;4.384;2023-04-01T22:34:37;11.65;;;7.43;;
22634;SDS011;11484;50.858;4.384;2023-04-01T22:38:18;15.05;;;8.43;;
22634;SDS011;11484;50.858;4.384;2023-04-01T22:40:29;14.85;;;8.90;;
22634;SDS011;11484;50.858;4.384;2023-04-01T22:43:07;14.25;;;8.32;;
22634;SDS011;11484;50.858;4.384;2023-04-01T22:45:44;13.95;;;8.25;;
22634;SDS011;11484;50.858;4.384;2023-04-01T22:51:00;15.65;;;8.75;;
22634;SDS011;11484;50.858;4.384;2023-04-01T22:56:34;15.38;;;8.80;;
22634;SDS011;11484;50.858;4.384;2023-04-01T22:59:16;15.55;;;8.98;;
22634;SDS011;11484;50.858;4.384;2023-04-01T23:01:53;18.33;;;9.35;;
22634;SDS011;11484;50.858;4.384;2023-04-01T23:04:28;17.60;;;9.68;;
22634;SDS011;11484;50.858;4.384;2023-04-01T23:07:01;15.10;;;9.18;;
22634;SDS011;11484;50.858;4.384;2023-04-01T23:09:38;14.95;;;8.90;;
22634;SDS011;11484;50.858;4.384;2023-04-01T23:12:05;14.85;;;8.32;;
22634;SDS011;11484;50.858;4.384;2023-04-01T23:22:25;13.90;;;7.70;;
22634;SDS011;11484;50.858;4.384;2023-04-01T23:24:55;13.70;;;7.88;;
22634;SDS011;11484;50.858;4.384;2023-04-01T23:33:21;15.05;;;8.85;;
22634;SDS011;11484;50.858;4.384;2023-04-01T23:38:18;13.82;;;8.57;;
22634;SDS011;11484;50.858;4.384;2023-04-01T23:40:47;13.27;;;7.97;;
22634;SDS011;11484;50.858;4.384;2023-04-01T23:43:23;14.18;;;8.00;;
22634;SDS011;11484;50.858;4.384;2023-04-01T23:45:55;12.80;;;8.20;;
22634;SDS011;11484;50.858;4.384;2023-04-01T23:48:24;13.87;;;8.10;;
22634;SDS011;11484;50.858;4.384;2023-04-01T23:50:54;16.65;;;9.07;;
22634;SDS011;11484;50.858;4.384;2023-04-01T23:53:23;17.98;;;10.07;;
22634;SDS011;11484;50.858;4.384;2023-04-01T23:55:51;16.48;;;9.77;;
22634;SDS011;11484;50.858;4.384;2023-04-01T23:58:21;17.55;;;9.57;;
